Time;durP1;ratioP1;P1;durP2;ratioP2;P2;SDS_P1;SDS_P2;PMS_P1;PMS_P2;Temp;Humidity;BMP_temperature;BMP_pressure;BME280_temperature;BME280_humidity;BME280_pressure;Samples;Min_cycle;Max_cycle;Signal;HPM_P1;HPM_P2
2023/10/05 00:01:44;;;;;;;7.32;3.67;;;;;;;;;;5053397;28;20063;-69
2023/10/05 00:04:15;;;;;;;7.85;3.78;;;;;;;;;;5052939;28;20056;-69
2023/10/05 00:06:44;;;;;;;10.20;4.45;;;;;;;;;;5051886;28;20048;-69
2023/10/05 00:09:15;;;;;;;10.52;4.00;;;;;;;;;;5053072;28;20049;-69
2023/10/05 00:11:42;;;;;;;9.20;4.03;;;;;;;;;;5051854;28;20045;-69
2023/10/05 00:14:10;;;;;;;10.32;4.68;;;;;;;;;;5052806;28;20044;-69
2023/10/05 00:16:37;;;;;;;9.27;4.00;;;;;;;;;;5052505;28;20052;-69
2023/10/05 00:19:05;;;;;;;8.35;4.07;;;;;;;;;;5053098;28;20047;-69
2023/10/05 00:21:35;;;;;;;6.90;3.60;;;;;;;;;;5053237;28;20571;-69
2023/10/05 00:24:06;;;;;;;8.65;4.10;;;;;;;;;;5052871;28;20495;-69
2023/10/05 00:26:33;;;;;;;6.45;3.72;;;;;;;;;;5052434;28;20045;-69
2023/10/05 00:29:06;;;;;;;8.90;4.18;;;;;;;;;;5052681;28;20049;-69
2023/10/05 00:31:38;;;;;;;10.60;3.67;;;;;;;;;;5052971;28;20127;-70
2023/10/05 00:34:08;;;;;;;12.00;4.38;;;;;;;;;;5052711;28;20158;-69
2023/10/05 00:36:39;;;;;;;7.82;4.18;;;;;;;;;;5052482;28;20049;-69
2023/10/05 00:39:09;;;;;;;10.75;4.30;;;;;;;;;;5052658;28;20071;-69
2023/10/05 00:41:36;;;;;;;8.48;4.43;;;;;;;;;;5052346;28;20045;-69
2023/10/05 00:44:04;;;;;;;7.88;3.78;;;;;;;;;;5052689;28;20057;-69
2023/10/05 00:46:32;;;;;;;10.82;4.13;;;;;;;;;;5052700;28;20084;-69
2023/10/05 00:49:04;;;;;;;7.78;3.95;;;;;;;;;;5052649;28;20412;-69
2023/10/05 00:51:34;;;;;;;9.52;3.95;;;;;;;;;;5052575;28;20453;-69
2023/10/05 00:54:04;;;;;;;9.95;4.38;;;;;;;;;;5051883;28;20049;-69
2023/10/05 00:56:35;;;;;;;7.03;4.30;;;;;;;;;;5052261;28;20512;-69
2023/10/05 00:59:06;;;;;;;8.65;4.07;;;;;;;;;;5052444;28;20072;-69
2023/10/05 01:01:54;;;;;;;8.90;4.07;;;;;;;;;;5051718;28;20087;-69
2023/10/05 01:04:23;;;;;;;11.07;4.50;;;;;;;;;;5052107;28;20063;-70
2023/10/05 01:06:56;;;;;;;10.88;4.65;;;;;;;;;;5051986;28;20049;-69
2023/10/05 01:09:39;;;;;;;9.13;4.90;;;;;;;;;;5052494;28;20044;-69
2023/10/05 01:12:17;;;;;;;9.38;4.20;;;;;;;;;;5052092;28;20111;-69
2023/10/05 01:14:50;;;;;;;8.10;3.95;;;;;;;;;;5051964;28;20117;-69
2023/10/05 01:17:20;;;;;;;9.30;4.20;;;;;;;;;;5048372;28;20048;-69
2023/10/05 01:19:47;;;;;;;11.77;4.72;;;;;;;;;;5052243;28;20053;-69
2023/10/05 01:22:16;;;;;;;11.75;5.00;;;;;;;;;;5052045;28;20047;-69
2023/10/05 01:24:45;;;;;;;11.10;4.57;;;;;;;;;;5050453;28;20049;-69
2023/10/05 01:27:12;;;;;;;6.43;4.15;;;;;;;;;;5051493;28;20072;-69
2023/10/05 01:29:39;;;;;;;8.00;3.97;;;;;;;;;;5051625;28;20055;-69
2023/10/05 01:32:07;;;;;;;10.20;4.40;;;;;;;;;;5051718;28;20041;-69
2023/10/05 01:34:34;;;;;;;8.40;4.60;;;;;;;;;;5051628;28;20076;-69
2023/10/05 01:37:02;;;;;;;11.07;3.90;;;;;;;;;;5051235;28;20127;-69
2023/10/05 01:39:32;;;;;;;9.18;4.18;;;;;;;;;;5051767;28;20056;-69
2023/10/05 01:42:01;;;;;;;11.07;4.18;;;;;;;;;;5051291;28;20463;-69
2023/10/05 01:44:27;;;;;;;6.85;3.88;;;;;;;;;;5051685;28;20049;-70
2023/10/05 01:46:57;;;;;;;11.05;4.50;;;;;;;;;;5051094;28;20045;-69
2023/10/05 01:49:25;;;;;;;8.55;3.95;;;;;;;;;;5051457;28;20045;-69
2023/10/05 01:51:52;;;;;;;8.77;3.95;;;;;;;;;;5051220;28;20041;-69
2023/10/05 01:54:24;;;;;;;9.48;4.50;;;;;;;;;;5050999;28;20049;-69
2023/10/05 01:56:51;;;;;;;7.55;4.13;;;;;;;;;;5051211;28;20118;-69
2023/10/05 01:59:21;;;;;;;10.52;4.28;;;;;;;;;;5051609;28;20052;-69
2023/10/05 02:01:48;;;;;;;8.07;4.25;;;;;;;;;;5051497;28;20057;-69
2023/10/05 02:04:15;;;;;;;9.73;4.35;;;;;;;;;;5047599;28;20052;-69
2023/10/05 02:06:42;;;;;;;9.82;4.10;;;;;;;;;;5049382;28;20049;-69
2023/10/05 02:09:10;;;;;;;8.23;4.30;;;;;;;;;;5050849;28;20132;-69
2023/10/05 02:11:37;;;;;;;8.70;4.47;;;;;;;;;;5051222;28;20059;-69
2023/10/05 02:14:04;;;;;;;9.18;4.53;;;;;;;;;;5049938;28;20051;-69
2023/10/05 02:16:32;;;;;;;11.93;4.47;;;;;;;;;;5050677;28;20508;-69
2023/10/05 02:19:02;;;;;;;9.52;4.10;;;;;;;;;;5053564;28;20045;-69
2023/10/05 02:21:30;;;;;;;8.73;4.20;;;;;;;;;;5050720;28;20045;-68
2023/10/05 02:24:03;;;;;;;8.02;4.65;;;;;;;;;;5051048;28;20511;-69
2023/10/05 02:26:33;;;;;;;9.65;3.90;;;;;;;;;;5050519;28;20076;-69
2023/10/05 02:29:13;;;;;;;10.50;4.65;;;;;;;;;;5050896;28;20539;-69
2023/10/05 02:31:50;;;;;;;7.93;4.10;;;;;;;;;;5050791;28;20124;-69
2023/10/05 02:34:20;;;;;;;10.18;4.30;;;;;;;;;;5047304;28;20110;-69
2023/10/05 02:36:46;;;;;;;14.82;4.78;;;;;;;;;;5050310;28;20060;-70
2023/10/05 02:39:14;;;;;;;8.88;4.40;;;;;;;;;;5047063;28;20080;-69
2023/10/05 02:41:40;;;;;;;11.65;3.95;;;;;;;;;;5050644;28;20048;-69
2023/10/05 02:44:17;;;;;;;8.07;4.18;;;;;;;;;;5050372;28;20410;-69
2023/10/05 02:46:47;;;;;;;13.75;5.03;;;;;;;;;;5049058;28;20079;-69
2023/10/05 02:49:15;;;;;;;8.48;4.45;;;;;;;;;;5046997;28;20420;-69
2023/10/05 02:51:43;;;;;;;14.80;4.72;;;;;;;;;;5049191;28;20048;-69
2023/10/05 02:54:10;;;;;;;8.35;4.00;;;;;;;;;;5050387;28;20098;-69
2023/10/05 02:56:40;;;;;;;10.48;4.50;;;;;;;;;;5050209;28;20144;-69
2023/10/05 02:59:10;;;;;;;9.93;4.43;;;;;;;;;;5050499;28;20044;-69
2023/10/05 03:01:37;;;;;;;11.52;4.70;;;;;;;;;;5050443;28;20049;-69
2023/10/05 03:04:16;;;;;;;7.55;4.40;;;;;;;;;;5050292;28;20052;-69
2023/10/05 03:06:45;;;;;;;10.02;4.60;;;;;;;;;;5050195;28;20055;-69
2023/10/05 03:09:12;;;;;;;18.02;4.43;;;;;;;;;;5050720;28;20041;-69
2023/10/05 03:11:39;;;;;;;11.10;4.80;;;;;;;;;;5050388;28;20538;-69
2023/10/05 03:14:06;;;;;;;11.25;4.80;;;;;;;;;;5050461;28;20049;-69
2023/10/05 03:16:37;;;;;;;9.63;5.03;;;;;;;;;;5050510;28;20045;-69
2023/10/05 03:19:05;;;;;;;8.98;4.10;;;;;;;;;;5050531;28;20099;-69
2023/10/05 03:21:32;;;;;;;9.20;4.72;;;;;;;;;;5050241;28;20077;-69
2023/10/05 03:23:58;;;;;;;7.43;3.97;;;;;;;;;;5050571;28;20045;-69
2023/10/05 03:26:25;;;;;;;13.82;5.22;;;;;;;;;;5053698;28;20045;-69
2023/10/05 03:28:52;;;;;;;9.25;4.28;;;;;;;;;;5054416;28;20128;-69
2023/10/05 03:31:24;;;;;;;8.02;4.70;;;;;;;;;;5054269;28;20128;-69
2023/10/05 03:33:52;;;;;;;8.98;4.70;;;;;;;;;;5053657;28;20071;-69
2023/10/05 03:36:20;;;;;;;9.57;4.63;;;;;;;;;;5053775;28;20053;-69
2023/10/05 03:38:55;;;;;;;8.25;4.53;;;;;;;;;;5053423;28;20049;-69
2023/10/05 03:41:26;;;;;;;10.88;4.30;;;;;;;;;;5054267;28;20393;-69
2023/10/05 03:43:55;;;;;;;9.07;4.40;;;;;;;;;;5051050;28;20044;-69
2023/10/05 03:46:24;;;;;;;11.18;4.82;;;;;;;;;;5053865;28;20040;-69
2023/10/05 03:48:52;;;;;;;9.43;4.50;;;;;;;;;;5053617;28;20095;-69
2023/10/05 03:51:20;;;;;;;10.88;4.78;;;;;;;;;;5053587;28;20049;-69
2023/10/05 03:53:51;;;;;;;7.82;4.97;;;;;;;;;;5053328;28;20059;-69
2023/10/05 03:56:21;;;;;;;8.43;4.43;;;;;;;;;;5050448;28;20567;-69
2023/10/05 03:58:52;;;;;;;8.27;4.47;;;;;;;;;;5053430;28;20067;-69
2023/10/05 04:01:21;;;;;;;14.70;4.78;;;;;;;;;;5053466;28;20048;-69
2023/10/05 04:03:50;;;;;;;8.32;4.78;;;;;;;;;;5052928;28;20056;-69
2023/10/05 04:06:21;;;;;;;8.38;4.18;;;;;;;;;;5053569;28;20080;-69
2023/10/05 04:08:54;;;;;;;9.95;4.88;;;;;;;;;;5053284;28;20512;-70
2023/10/05 04:11:21;;;;;;;8.82;4.53;;;;;;;;;;5050548;28;20073;-69
2023/10/05 04:13:50;;;;;;;8.95;4.47;;;;;;;;;;5052891;28;20053;-70
2023/10/05 04:16:26;;;;;;;8.20;4.63;;;;;;;;;;5049414;28;20569;-69
2023/10/05 04:18:53;;;;;;;9.25;4.57;;;;;;;;;;5053297;28;20555;-69
2023/10/05 04:21:22;;;;;;;11.50;4.93;;;;;;;;;;5053123;28;20048;-70
2023/10/05 04:23:50;;;;;;;9.55;4.50;;;;;;;;;;5052809;28;20053;-69
2023/10/05 04:26:21;;;;;;;10.60;5.10;;;;;;;;;;5052986;28;20060;-69
2023/10/05 04:28:57;;;;;;;10.07;4.38;;;;;;;;;;5052388;28;20061;-69
2023/10/05 04:31:26;;;;;;;9.75;4.53;;;;;;;;;;5053268;28;20045;-69
2023/10/05 04:33:54;;;;;;;9.75;4.60;;;;;;;;;;5052703;28;20102;-69
2023/10/05 04:36:22;;;;;;;9.55;4.80;;;;;;;;;;5052520;28;20546;-69
2023/10/05 04:38:51;;;;;;;9.95;4.93;;;;;;;;;;5052336;28;20139;-70
2023/10/05 04:41:19;;;;;;;10.35;5.10;;;;;;;;;;5052496;28;20555;-69
2023/10/05 04:43:48;;;;;;;10.35;4.68;;;;;;;;;;5052577;28;20098;-70
2023/10/05 04:46:17;;;;;;;9.55;4.82;;;;;;;;;;5052836;28;20516;-69
2023/10/05 04:48:55;;;;;;;17.17;5.88;;;;;;;;;;5051093;28;20073;-69
2023/10/05 04:51:22;;;;;;;11.32;5.10;;;;;;;;;;5049839;28;20501;-69
2023/10/05 04:53:54;;;;;;;10.05;4.85;;;;;;;;;;5052541;28;20068;-69
2023/10/05 04:56:32;;;;;;;9.30;4.72;;;;;;;;;;5052744;28;20140;-69
2023/10/05 05:01:56;;;;;;;12.77;4.82;;;;;;;;;;5051000;28;20083;-70
2023/10/05 05:04:27;;;;;;;12.00;4.93;;;;;;;;;;5052373;28;20160;-69
2023/10/05 05:06:54;;;;;;;12.13;4.88;;;;;;;;;;5052115;28;20045;-69
2023/10/05 05:09:24;;;;;;;15.13;4.80;;;;;;;;;;5052193;28;20045;-69
2023/10/05 05:11:51;;;;;;;11.63;5.30;;;;;;;;;;5052087;28;20041;-69
2023/10/05 05:14:18;;;;;;;15.48;6.20;;;;;;;;;;5051835;28;20416;-69
2023/10/05 05:16:44;;;;;;;8.73;5.00;;;;;;;;;;5051613;28;20053;-69
2023/10/05 05:19:11;;;;;;;11.98;5.20;;;;;;;;;;5052307;28;20045;-69
2023/10/05 05:21:37;;;;;;;9.30;4.82;;;;;;;;;;5052241;28;20135;-69
2023/10/05 05:24:05;;;;;;;12.63;4.93;;;;;;;;;;5051999;28;20055;-69
2023/10/05 05:26:33;;;;;;;11.25;5.55;;;;;;;;;;5051250;28;20128;-69
2023/10/05 05:29:00;;;;;;;13.13;5.50;;;;;;;;;;5051513;28;20048;-69
2023/10/05 05:31:27;;;;;;;14.55;6.10;;;;;;;;;;5051950;28;20045;-69
2023/10/05 05:33:53;;;;;;;20.08;9.07;;;;;;;;;;5051401;28;20051;-70
2023/10/05 05:36:20;;;;;;;16.85;7.00;;;;;;;;;;5051816;28;20051;-69
2023/10/05 05:38:48;;;;;;;13.25;5.72;;;;;;;;;;5051469;28;20045;-69
2023/10/05 05:41:18;;;;;;;13.73;4.38;;;;;;;;;;5048032;28;20123;-69
2023/10/05 05:43:46;;;;;;;13.50;5.25;;;;;;;;;;5050388;28;20076;-69
2023/10/05 05:46:13;;;;;;;11.93;5.07;;;;;;;;;;5047698;28;20053;-69
2023/10/05 05:48:42;;;;;;;13.55;6.25;;;;;;;;;;5051232;28;20051;-69
2023/10/05 05:51:14;;;;;;;14.50;5.22;;;;;;;;;;5051584;28;20530;-69
2023/10/05 05:53:41;;;;;;;10.57;4.68;;;;;;;;;;5051219;28;20457;-69
2023/10/05 05:56:08;;;;;;;9.35;4.85;;;;;;;;;;5051039;28;20057;-69
2023/10/05 05:58:37;;;;;;;11.60;4.75;;;;;;;;;;5051175;28;20056;-69
2023/10/05 06:01:08;;;;;;;11.80;4.40;;;;;;;;;;5051748;28;20495;-70
2023/10/05 06:03:34;;;;;;;12.82;5.53;;;;;;;;;;5050924;28;20143;-69
2023/10/05 06:06:03;;;;;;;12.40;5.68;;;;;;;;;;5051646;28;20509;-69
2023/10/05 06:08:30;;;;;;;10.57;4.70;;;;;;;;;;5050767;28;20045;-69
2023/10/05 06:10:56;;;;;;;10.23;5.20;;;;;;;;;;5050922;28;20468;-69
2023/10/05 06:13:24;;;;;;;13.00;6.05;;;;;;;;;;5050964;28;20045;-69
2023/10/05 06:15:51;;;;;;;10.30;4.78;;;;;;;;;;5051040;28;20210;-69
2023/10/05 06:18:19;;;;;;;13.70;5.40;;;;;;;;;;5050859;28;20051;-69
2023/10/05 06:20:47;;;;;;;11.43;5.43;;;;;;;;;;5051202;28;20132;-69
2023/10/05 06:23:13;;;;;;;10.25;5.43;;;;;;;;;;5051020;28;20053;-69
2023/10/05 06:25:40;;;;;;;14.38;5.80;;;;;;;;;;5050896;28;20045;-69
2023/10/05 06:28:08;;;;;;;11.98;5.50;;;;;;;;;;5050899;28;20500;-69
2023/10/05 06:30:35;;;;;;;9.80;5.50;;;;;;;;;;5050710;28;20049;-69
2023/10/05 06:33:01;;;;;;;13.82;5.20;;;;;;;;;;5050856;28;20045;-69
2023/10/05 06:35:29;;;;;;;12.65;5.45;;;;;;;;;;5050608;28;20413;-69
2023/10/05 06:37:57;;;;;;;12.55;5.65;;;;;;;;;;5050336;28;20049;-70
2023/10/05 06:40:29;;;;;;;9.95;4.68;;;;;;;;;;5050969;28;20388;-69
2023/10/05 06:42:57;;;;;;;8.32;4.45;;;;;;;;;;5048424;28;20406;-69
2023/10/05 06:45:24;;;;;;;11.70;5.68;;;;;;;;;;5050700;28;20076;-69
2023/10/05 06:47:51;;;;;;;13.00;5.07;;;;;;;;;;5050202;28;20439;-69
2023/10/05 06:50:18;;;;;;;11.43;5.15;;;;;;;;;;5050379;28;20464;-69
2023/10/05 06:52:48;;;;;;;11.50;4.50;;;;;;;;;;5050791;28;20048;-69
2023/10/05 06:55:17;;;;;;;13.02;4.40;;;;;;;;;;5046833;28;20489;-69
2023/10/05 06:57:44;;;;;;;13.10;5.57;;;;;;;;;;5050411;28;20045;-69
2023/10/05 07:00:16;;;;;;;14.35;5.25;;;;;;;;;;5053308;28;20330;-69
2023/10/05 07:02:43;;;;;;;11.38;5.38;;;;;;;;;;5054411;28;20501;-68
2023/10/05 07:05:10;;;;;;;12.10;5.32;;;;;;;;;;5048785;28;20048;-69
2023/10/05 07:07:37;;;;;;;11.27;5.75;;;;;;;;;;5052474;28;20569;-68
2023/10/05 07:10:07;;;;;;;12.13;5.10;;;;;;;;;;5053166;28;20045;-68
2023/10/05 07:12:35;;;;;;;12.18;6.60;;;;;;;;;;5052836;28;20308;-68
2023/10/05 07:15:02;;;;;;;12.80;6.03;;;;;;;;;;5053303;28;20045;-69
2023/10/05 07:17:29;;;;;;;11.05;5.43;;;;;;;;;;5052005;28;20045;-69
2023/10/05 07:19:55;;;;;;;12.70;6.03;;;;;;;;;;5053312;28;20479;-69
2023/10/05 07:22:22;;;;;;;14.77;6.03;;;;;;;;;;5052797;28;20168;-69
2023/10/05 07:24:49;;;;;;;15.50;5.97;;;;;;;;;;5052973;28;20053;-69
2023/10/05 07:27:18;;;;;;;14.18;5.70;;;;;;;;;;5052658;28;20041;-69
2023/10/05 07:29:45;;;;;;;10.90;5.28;;;;;;;;;;5052421;28;20041;-70
2023/10/05 07:32:13;;;;;;;12.82;5.35;;;;;;;;;;5050779;28;20049;-69
2023/10/05 07:34:40;;;;;;;12.35;5.28;;;;;;;;;;5054007;28;20393;-69
2023/10/05 07:37:10;;;;;;;12.40;5.47;;;;;;;;;;5053021;28;20052;-69
2023/10/05 07:39:37;;;;;;;13.55;5.10;;;;;;;;;;5054027;28;20433;-68
2023/10/05 07:42:03;;;;;;;11.75;4.82;;;;;;;;;;5053660;28;20468;-69
2023/10/05 07:44:31;;;;;;;11.05;5.50;;;;;;;;;;5053791;28;20041;-68
2023/10/05 07:46:58;;;;;;;17.25;5.68;;;;;;;;;;5053374;28;20045;-69
2023/10/05 07:49:24;;;;;;;11.88;5.40;;;;;;;;;;5053850;28;20041;-69
2023/10/05 07:51:51;;;;;;;11.50;4.82;;;;;;;;;;5052970;28;20068;-68
2023/10/05 07:54:18;;;;;;;13.48;5.75;;;;;;;;;;5053616;28;20106;-68
2023/10/05 07:56:45;;;;;;;11.02;5.03;;;;;;;;;;5050752;28;20045;-68
2023/10/05 07:59:13;;;;;;;12.20;5.30;;;;;;;;;;5049262;28;20041;-69
2023/10/05 08:01:41;;;;;;;13.00;4.82;;;;;;;;;;5053228;28;20489;-68
2023/10/05 08:04:11;;;;;;;10.18;4.80;;;;;;;;;;5049755;28;20049;-68
2023/10/05 08:06:38;;;;;;;13.55;5.03;;;;;;;;;;5048985;28;20647;-68
2023/10/05 08:09:05;;;;;;;10.10;4.50;;;;;;;;;;5052428;28;20128;-69
2023/10/05 08:11:32;;;;;;;9.77;4.88;;;;;;;;;;5049844;28;20566;-69
2023/10/05 08:13:59;;;;;;;10.73;5.25;;;;;;;;;;5051726;28;20106;-69
2023/10/05 08:16:27;;;;;;;10.05;5.07;;;;;;;;;;5048911;28;20051;-69
2023/10/05 08:18:55;;;;;;;11.18;5.05;;;;;;;;;;5049549;28;20531;-69
2023/10/05 08:21:22;;;;;;;11.85;5.03;;;;;;;;;;5051599;28;20075;-70
2023/10/05 08:23:51;;;;;;;12.70;5.47;;;;;;;;;;5052147;28;20387;-69
2023/10/05 08:26:18;;;;;;;11.27;4.95;;;;;;;;;;5047898;28;20457;-68
2023/10/05 08:28:48;;;;;;;12.98;5.57;;;;;;;;;;5044598;28;20043;-67
2023/10/05 08:31:16;;;;;;;13.52;5.28;;;;;;;;;;5048758;28;20047;-68
2023/10/05 08:33:42;;;;;;;11.13;4.90;;;;;;;;;;5051322;28;20040;-69
2023/10/05 08:36:12;;;;;;;11.23;4.55;;;;;;;;;;5050739;28;20083;-68
2023/10/05 08:38:39;;;;;;;11.85;4.65;;;;;;;;;;5051276;28;20492;-69
2023/10/05 08:41:07;;;;;;;12.93;4.82;;;;;;;;;;5052395;28;20045;-68
2023/10/05 08:43:35;;;;;;;10.77;4.35;;;;;;;;;;5052243;28;20413;-68
2023/10/05 08:46:10;;;;;;;12.68;4.38;;;;;;;;;;5050148;28;20063;-68
2023/10/05 08:48:37;;;;;;;9.02;4.10;;;;;;;;;;5048387;28;20056;-69
2023/10/05 08:51:08;;;;;;;10.82;3.97;;;;;;;;;;5052444;28;20496;-69
2023/10/05 08:53:41;;;;;;;14.75;4.30;;;;;;;;;;5048689;28;20056;-69
2023/10/05 08:56:12;;;;;;;9.85;4.07;;;;;;;;;;5051672;28;20081;-68
2023/10/05 08:58:41;;;;;;;10.68;3.97;;;;;;;;;;5051653;28;20048;-69
2023/10/05 09:01:23;;;;;;;10.23;3.95;;;;;;;;;;5052577;28;20052;-68
2023/10/05 09:03:53;;;;;;;9.90;3.90;;;;;;;;;;5051573;28;20075;-67
2023/10/05 09:06:21;;;;;;;13.65;4.47;;;;;;;;;;5051300;28;20080;-69
2023/10/05 09:08:57;;;;;;;9.18;4.13;;;;;;;;;;5051315;28;20051;-69
2023/10/05 09:11:31;;;;;;;10.65;4.28;;;;;;;;;;5052226;28;20546;-69
2023/10/05 09:14:05;;;;;;;9.90;4.28;;;;;;;;;;5051580;28;20051;-69
2023/10/05 09:16:32;;;;;;;9.18;5.05;;;;;;;;;;5048952;28;20578;-69
2023/10/05 09:19:00;;;;;;;10.55;3.60;;;;;;;;;;5049716;28;20466;-69
2023/10/05 09:21:48;;;;;;;8.20;3.38;;;;;;;;;;5051857;28;20041;-69
2023/10/05 09:24:22;;;;;;;8.73;4.25;;;;;;;;;;5048613;28;20107;-69
2023/10/05 09:26:52;;;;;;;;;;;;;;;;;;5050839;28;20049;-69
2023/10/05 09:29:21;;;;;;;9.73;3.10;;;;;;;;;;5052288;28;19937;-69
2023/10/05 09:31:50;;;;;;;9.32;3.35;;;;;;;;;;5051726;28;20047;-69
2023/10/05 09:34:19;;;;;;;9.48;3.63;;;;;;;;;;5040544;28;20045;-68
2023/10/05 09:36:47;;;;;;;10.35;3.70;;;;;;;;;;5050606;28;20136;-69
2023/10/05 09:39:17;;;;;;;8.82;3.67;;;;;;;;;;5050696;28;20049;-69
2023/10/05 09:41:50;;;;;;;12.52;4.15;;;;;;;;;;5051033;28;20143;-69
2023/10/05 09:44:17;;;;;;;9.93;3.45;;;;;;;;;;5049030;28;20064;-69
2023/10/05 09:46:44;;;;;;;10.15;3.75;;;;;;;;;;5050381;28;20053;-69
2023/10/05 09:49:14;;;;;;;10.98;3.67;;;;;;;;;;5050769;28;20596;-69
2023/10/05 09:51:43;;;;;;;9.68;3.20;;;;;;;;;;5046217;28;20055;-69
2023/10/05 09:54:11;;;;;;;9.07;3.28;;;;;;;;;;5045897;28;20416;-69
2023/10/05 09:56:41;;;;;;;8.23;3.38;;;;;;;;;;5049186;28;20045;-69
2023/10/05 09:59:15;;;;;;;9.48;3.53;;;;;;;;;;5049894;28;20057;-70
2023/10/05 10:01:45;;;;;;;11.52;3.22;;;;;;;;;;5048013;28;20087;-70
2023/10/05 10:04:24;;;;;;;7.95;2.70;;;;;;;;;;5049974;28;20061;-70
2023/10/05 10:06:53;;;;;;;7.45;3.40;;;;;;;;;;5049722;28;20497;-70
2023/10/05 10:09:26;;;;;;;8.65;3.30;;;;;;;;;;5050167;28;20083;-70
2023/10/05 10:11:58;;;;;;;8.02;3.30;;;;;;;;;;5049521;28;20048;-70
2023/10/05 10:14:26;;;;;;;5.95;3.20;;;;;;;;;;5049608;28;20037;-70
2023/10/05 10:17:00;;;;;;;6.45;3.25;;;;;;;;;;5050086;28;20045;-70
2023/10/05 10:19:28;;;;;;;9.63;4.07;;;;;;;;;;5050132;28;20045;-68
2023/10/05 10:22:00;;;;;;;9.02;3.20;;;;;;;;;;5049166;28;20049;-68
2023/10/05 10:24:29;;;;;;;8.32;3.80;;;;;;;;;;5047887;28;20500;-69
2023/10/05 10:27:08;;;;;;;6.95;2.97;;;;;;;;;;5046642;28;20075;-68
2023/10/05 10:29:43;;;;;;;8.57;3.22;;;;;;;;;;5049400;28;20056;-69
2023/10/05 10:32:19;;;;;;;12.45;3.25;;;;;;;;;;5049407;28;20063;-69
2023/10/05 10:34:50;;;;;;;9.95;3.10;;;;;;;;;;5046917;28;20120;-69
2023/10/05 10:37:36;;;;;;;5.57;2.90;;;;;;;;;;5044533;28;20060;-70
2023/10/05 10:40:11;;;;;;;7.53;2.88;;;;;;;;;;5047391;28;20095;-70
2023/10/05 10:42:53;;;;;;;8.32;2.60;;;;;;;;;;5049459;28;20139;-70
2023/10/05 10:45:23;;;;;;;11.05;3.13;;;;;;;;;;5046377;28;20063;-70
2023/10/05 10:47:51;;;;;;;7.63;2.83;;;;;;;;;;5047310;28;20075;-70
2023/10/05 10:50:22;;;;;;;6.88;3.10;;;;;;;;;;5049151;28;20129;-70
2023/10/05 10:52:50;;;;;;;6.43;2.35;;;;;;;;;;5050012;28;20514;-70
2023/10/05 10:55:17;;;;;;;8.07;3.00;;;;;;;;;;5049727;28;20049;-70
2023/10/05 10:57:46;;;;;;;9.00;2.88;;;;;;;;;;5049404;28;20045;-70
2023/10/05 11:03:09;;;;;;;6.57;2.67;;;;;;;;;;5048986;28;20049;-70
2023/10/05 11:05:40;;;;;;;7.78;2.53;;;;;;;;;;5049191;28;20048;-70
2023/10/05 11:08:09;;;;;;;7.00;3.20;;;;;;;;;;5048153;28;20340;-70
2023/10/05 11:10:35;;;;;;;6.45;3.13;;;;;;;;;;5049832;28;20424;-70
2023/10/05 11:13:14;;;;;;;6.97;2.80;;;;;;;;;;5049853;28;20049;-70
2023/10/05 11:15:57;;;;;;;9.38;4.03;;;;;;;;;;5049939;28;20055;-70
2023/10/05 11:18:26;;;;;;;9.52;3.97;;;;;;;;;;5047518;28;20076;-70
2023/10/05 11:20:52;;;;;;;10.20;3.78;;;;;;;;;;5050089;28;20057;-70
2023/10/05 11:23:25;;;;;;;7.00;3.67;;;;;;;;;;5049773;28;20049;-70
2023/10/05 11:26:03;;;;;;;10.60;3.25;;;;;;;;;;5048540;28;20132;-70
2023/10/05 11:28:31;;;;;;;6.93;2.90;;;;;;;;;;5049887;28;20049;-70
2023/10/05 11:30:59;;;;;;;9.93;3.47;;;;;;;;;;5050263;28;20083;-70
2023/10/05 11:33:33;;;;;;;8.52;3.33;;;;;;;;;;5050027;28;20045;-70
2023/10/05 11:36:17;;;;;;;9.32;3.35;;;;;;;;;;5050046;28;20051;-70
2023/10/05 11:38:43;;;;;;;9.57;3.28;;;;;;;;;;5049861;28;20473;-70
2023/10/05 11:41:16;;;;;;;6.45;3.47;;;;;;;;;;5050380;28;20047;-70
2023/10/05 11:43:44;;;;;;;;;;;;;;;;;;5050441;28;20049;-70
2023/10/05 11:46:17;;;;;;;7.72;3.03;;;;;;;;;;5052295;28;19923;-70
2023/10/05 11:48:54;;;;;;;9.63;3.40;;;;;;;;;;5053057;28;20048;-70
2023/10/05 11:51:26;;;;;;;5.35;3.20;;;;;;;;;;5052495;28;20489;-70
2023/10/05 11:53:55;;;;;;;7.57;3.72;;;;;;;;;;5053413;28;20045;-70
2023/10/05 11:56:22;;;;;;;12.25;3.22;;;;;;;;;;5054091;28;20090;-70
2023/10/05 11:58:49;;;;;;;11.15;3.20;;;;;;;;;;5053111;28;20045;-70
2023/10/05 12:01:19;;;;;;;6.72;2.60;;;;;;;;;;5053840;28;20450;-70
2023/10/05 12:03:47;;;;;;;9.00;2.72;;;;;;;;;;5053676;28;20049;-70
2023/10/05 12:06:15;;;;;;;7.75;2.70;;;;;;;;;;5053578;28;20232;-70
2023/10/05 12:08:42;;;;;;;6.05;2.72;;;;;;;;;;5053276;28;20076;-70
2023/10/05 12:11:13;;;;;;;9.95;3.20;;;;;;;;;;5051043;28;20460;-70
2023/10/05 12:13:39;;;;;;;5.82;2.40;;;;;;;;;;5051939;28;20055;-70
2023/10/05 12:16:11;;;;;;;7.28;2.50;;;;;;;;;;5052511;28;20048;-70
2023/10/05 12:18:41;;;;;;;8.40;2.47;;;;;;;;;;5051946;28;20416;-70
2023/10/05 12:21:09;;;;;;;5.28;1.98;;;;;;;;;;5052074;28;20099;-70
2023/10/05 12:23:36;;;;;;;5.85;2.45;;;;;;;;;;5051801;28;20045;-70
2023/10/05 12:26:03;;;;;;;6.05;2.30;;;;;;;;;;5051673;28;20049;-70
2023/10/05 12:28:31;;;;;;;6.70;2.25;;;;;;;;;;5052195;28;20059;-69
2023/10/05 12:30:58;;;;;;;5.80;2.25;;;;;;;;;;5050695;28;20072;-70
2023/10/05 12:33:25;;;;;;;8.15;2.55;;;;;;;;;;5051988;28;20045;-70
2023/10/05 12:35:53;;;;;;;5.03;1.98;;;;;;;;;;5051491;28;20045;-70
2023/10/05 12:38:21;;;;;;;7.18;2.53;;;;;;;;;;5046968;28;20052;-70
2023/10/05 12:40:48;;;;;;;7.13;2.42;;;;;;;;;;5052178;28;20072;-70
2023/10/05 12:43:16;;;;;;;4.53;1.95;;;;;;;;;;5047757;28;20045;-70
2023/10/05 12:45:43;;;;;;;8.82;2.42;;;;;;;;;;5051360;28;20097;-70
2023/10/05 12:48:11;;;;;;;8.30;2.63;;;;;;;;;;5051885;28;20061;-70
2023/10/05 12:50:39;;;;;;;6.60;2.78;;;;;;;;;;5052437;28;20478;-70
2023/10/05 12:53:07;;;;;;;6.13;2.05;;;;;;;;;;5051446;28;20045;-70
2023/10/05 12:55:35;;;;;;;6.47;2.30;;;;;;;;;;5051875;28;20087;-70
2023/10/05 12:58:02;;;;;;;5.72;2.17;;;;;;;;;;5050409;28;20045;-70
2023/10/05 13:00:29;;;;;;;5.30;2.20;;;;;;;;;;5049269;28;20076;-70
2023/10/05 13:02:56;;;;;;;7.10;2.50;;;;;;;;;;5049128;28;20052;-70
2023/10/05 13:05:28;;;;;;;7.68;2.38;;;;;;;;;;5051596;28;20136;-70
2023/10/05 13:07:55;;;;;;;7.28;2.47;;;;;;;;;;5050760;28;20531;-70
2023/10/05 13:10:27;;;;;;;6.60;2.42;;;;;;;;;;5050653;28;20056;-70
2023/10/05 13:13:00;;;;;;;8.40;2.33;;;;;;;;;;5051195;28;20496;-70
2023/10/05 13:15:32;;;;;;;10.32;2.50;;;;;;;;;;5051074;28;20577;-70
2023/10/05 13:18:15;;;;;;;7.10;2.50;;;;;;;;;;5048470;28;20134;-70
2023/10/05 13:20:42;;;;;;;;;;;;;;;;;;5050946;28;20496;-70
2023/10/05 13:23:10;;;;;;;5.07;2.20;;;;;;;;;;5051364;28;19974;-70
2023/10/05 13:25:39;;;;;;;7.53;2.15;;;;;;;;;;5051675;28;20508;-70
2023/10/05 13:28:10;;;;;;;5.80;2.03;;;;;;;;;;5051072;28;20424;-71
2023/10/05 13:30:41;;;;;;;5.78;1.83;;;;;;;;;;5048337;28;20055;-71
2023/10/05 13:33:13;;;;;;;6.50;2.17;;;;;;;;;;5051560;28;20041;-70
2023/10/05 13:35:41;;;;;;;6.07;2.13;;;;;;;;;;5050764;28;20049;-70
2023/10/05 13:38:08;;;;;;;5.80;2.35;;;;;;;;;;5050708;28;20045;-70
2023/10/05 13:40:36;;;;;;;3.85;2.00;;;;;;;;;;5050844;28;20041;-70
2023/10/05 13:43:05;;;;;;;6.25;2.20;;;;;;;;;;5050784;28;20072;-70
2023/10/05 13:45:33;;;;;;;3.97;2.05;;;;;;;;;;5051161;28;20489;-70
2023/10/05 13:48:02;;;;;;;6.05;2.20;;;;;;;;;;5050881;28;20135;-70
2023/10/05 13:50:30;;;;;;;6.00;2.40;;;;;;;;;;5050337;28;20114;-70
2023/10/05 13:52:57;;;;;;;7.20;2.28;;;;;;;;;;5048857;28;20501;-70
2023/10/05 13:55:25;;;;;;;6.97;2.63;;;;;;;;;;5049353;28;20156;-70
2023/10/05 13:57:54;;;;;;;7.13;2.25;;;;;;;;;;5050374;28;20045;-71
2023/10/05 14:00:25;;;;;;;5.78;1.80;;;;;;;;;;5048876;28;20049;-70
2023/10/05 14:02:51;;;;;;;4.95;2.00;;;;;;;;;;5050140;28;20441;-71
2023/10/05 14:05:21;;;;;;;6.07;2.05;;;;;;;;;;5050743;28;20045;-70
2023/10/05 14:07:51;;;;;;;5.15;1.80;;;;;;;;;;5048303;28;20135;-68
2023/10/05 14:10:18;;;;;;;5.00;1.85;;;;;;;;;;5050482;28;20068;-68
2023/10/05 14:12:44;;;;;;;3.20;1.45;;;;;;;;;;5051037;28;20049;-69
2023/10/05 14:15:12;;;;;;;3.85;1.67;;;;;;;;;;5051477;28;20048;-68
2023/10/05 14:17:39;;;;;;;4.75;1.50;;;;;;;;;;5050592;28;20052;-69
2023/10/05 14:20:07;;;;;;;7.68;2.10;;;;;;;;;;5051113;28;20049;-69
2023/10/05 14:22:34;;;;;;;5.82;1.90;;;;;;;;;;5050474;28;20195;-68
2023/10/05 14:25:07;;;;;;;5.38;1.80;;;;;;;;;;5051068;28;20107;-68
2023/10/05 14:27:34;;;;;;;5.38;1.83;;;;;;;;;;5050616;28;20554;-69
2023/10/05 14:30:06;;;;;;;4.63;1.80;;;;;;;;;;5050871;28;20045;-69
2023/10/05 14:32:36;;;;;;;4.22;1.80;;;;;;;;;;5050796;28;20551;-69
2023/10/05 14:35:07;;;;;;;4.82;1.77;;;;;;;;;;5050585;28;20452;-69
2023/10/05 14:37:34;;;;;;;6.53;2.00;;;;;;;;;;5048908;28;20076;-69
2023/10/05 14:40:00;;;;;;;3.90;1.58;;;;;;;;;;5050782;28;20045;-68
2023/10/05 14:42:28;;;;;;;4.68;1.60;;;;;;;;;;5050511;28;20045;-68
2023/10/05 14:44:56;;;;;;;2.75;1.50;;;;;;;;;;5050555;28;20517;-68
2023/10/05 14:47:22;;;;;;;4.28;1.95;;;;;;;;;;5050001;28;20052;-68
2023/10/05 14:49:50;;;;;;;6.28;1.70;;;;;;;;;;5050694;28;20041;-68
2023/10/05 14:52:19;;;;;;;4.95;2.10;;;;;;;;;;5050602;28;20060;-68
2023/10/05 14:54:46;;;;;;;6.95;2.50;;;;;;;;;;5049316;28;20049;-68
2023/10/05 14:57:12;;;;;;;4.18;1.80;;;;;;;;;;5050312;28;20420;-68